createdAt,value
2018-07-07T00:00:13.978Z,101671.91
2018-07-07T00:02:41.049Z,101701.75
2018-07-07T00:05:08.713Z,101703.69
2018-07-07T00:07:37.597Z,101702.37
2018-07-07T00:10:04.637Z,101698.78
2018-07-07T00:12:31.633Z,101707.20
2018-07-07T00:14:58.630Z,101702.73
2018-07-07T00:17:25.646Z,101703.24
2018-07-07T00:19:52.709Z,101704.89
2018-07-07T00:22:19.748Z,101707.31
2018-07-07T00:24:47.036Z,101710.78
2018-07-07T00:27:14.231Z,101706.36
2018-07-07T00:29:41.565Z,101705.03
2018-07-07T00:32:08.597Z,101707.67
2018-07-07T00:34:35.953Z,101638.00
2018-07-07T00:37:02.989Z,101709.21
2018-07-07T00:39:30.054Z,101715.44
2018-07-07T00:41:57.089Z,101710.16
2018-07-07T00:44:24.101Z,101714.13
2018-07-07T00:46:51.121Z,101708.37
2018-07-07T00:49:18.165Z,101708.01
2018-07-07T00:51:45.213Z,101715.80
2018-07-07T00:54:12.205Z,101718.08
2018-07-07T00:56:39.396Z,101720.09
2018-07-07T00:59:06.405Z,101721.08
2018-07-07T01:01:33.426Z,101714.96
2018-07-07T01:04:00.398Z,101719.98
2018-07-07T01:06:28.724Z,101724.63
2018-07-07T01:08:55.733Z,101723.31
2018-07-07T01:11:22.757Z,101719.61
2018-07-07T01:13:49.746Z,101715.66
2018-07-07T01:16:17.163Z,101716.98
2018-07-07T01:18:44.149Z,101724.04
2018-07-07T01:21:11.493Z,101717.96
2018-07-07T01:23:38.553Z,101722.25
2018-07-07T01:26:05.577Z,101718.08
2018-07-07T01:28:32.577Z,101721.41
2018-07-07T01:30:59.617Z,101720.23
2018-07-07T01:33:26.753Z,101717.96
2018-07-07T01:35:53.762Z,101710.16
2018-07-07T01:38:20.828Z,101716.20
2018-07-07T01:40:47.984Z,101714.88
2018-07-07T01:43:15.135Z,101709.87
2018-07-07T01:45:42.305Z,101707.09
2018-07-07T01:48:09.294Z,101704.81
2018-07-07T01:50:36.297Z,101704.81
2018-07-07T01:53:03.319Z,101700.50
2018-07-07T01:55:30.329Z,101698.70
2018-07-07T01:57:57.330Z,101702.29
2018-07-07T02:00:24.336Z,101701.48
2018-07-07T02:02:51.361Z,101704.45
2018-07-07T02:05:18.389Z,101706.47
2018-07-07T02:07:45.409Z,101704.20
2018-07-07T02:10:12.434Z,101709.61
2018-07-07T02:12:39.437Z,101713.42
2018-07-07T02:15:06.513Z,101712.02
2018-07-07T02:17:33.569Z,101712.36
2018-07-07T02:20:00.565Z,101714.38
2018-07-07T02:22:27.581Z,101709.10
2018-07-07T02:24:54.638Z,101721.08
2018-07-07T02:27:23.376Z,101716.75
2018-07-07T02:29:50.567Z,101711.16
2018-07-07T02:32:17.627Z,101708.99
2018-07-07T02:34:44.961Z,101711.48
2018-07-07T02:37:11.937Z,101705.88
2018-07-07T02:39:39.069Z,101704.89
2018-07-07T02:42:06.319Z,101713.86
2018-07-07T02:44:33.405Z,101712.18
2018-07-07T02:47:00.513Z,101719.13
2018-07-07T02:49:27.569Z,101719.61
2018-07-07T02:51:54.825Z,101717.20
2018-07-07T02:54:21.817Z,101719.21
2018-07-07T02:56:48.836Z,101718.88
2018-07-07T02:59:15.830Z,101728.80
2018-07-07T03:01:42.825Z,101722.29
2018-07-07T03:04:09.853Z,101726.53
2018-07-07T03:06:36.896Z,101724.48
2018-07-07T03:09:04.386Z,101729.28
2018-07-07T03:11:31.413Z,101725.55
2018-07-07T03:13:58.388Z,101727.01
2018-07-07T03:16:25.425Z,101725.22
2018-07-07T03:18:52.417Z,101726.87
2018-07-07T03:21:19.543Z,101721.59
2018-07-07T03:23:46.529Z,101728.41
2018-07-07T03:26:13.498Z,101729.61
2018-07-07T03:28:40.496Z,101732.80
2018-07-07T03:31:07.769Z,101741.52
2018-07-07T03:33:34.777Z,101733.68
2018-07-07T03:36:01.833Z,101736.91
2018-07-07T03:38:28.825Z,101741.41
2018-07-07T03:40:55.845Z,101746.79
2018-07-07T03:43:22.841Z,101747.08
2018-07-07T03:45:49.817Z,101753.16
2018-07-07T03:48:17.506Z,101747.52
2018-07-07T03:50:44.568Z,101743.92
2018-07-07T03:53:11.617Z,101753.89
2018-07-07T03:55:38.709Z,101752.21
2018-07-07T03:58:05.745Z,101756.79
2018-07-07T04:00:32.749Z,101751.03
2018-07-07T04:02:59.825Z,101754.55
2018-07-07T04:05:26.809Z,101753.72
2018-07-07T04:07:54.029Z,101759.47
2018-07-07T04:10:21.021Z,101760.78
2018-07-07T04:12:48.026Z,101762.47
2018-07-07T04:15:15.034Z,101760.89
2018-07-07T04:17:42.141Z,101763.86
2018-07-07T04:20:09.181Z,101764.23
2018-07-07T04:22:36.298Z,101770.30
2018-07-07T04:25:03.397Z,101768.36
2018-07-07T04:27:30.621Z,101763.78
2018-07-07T04:29:57.641Z,101762.53
2018-07-07T04:32:24.654Z,101752.92
2018-07-07T04:34:51.668Z,101760.65
2018-07-07T04:37:18.705Z,101756.97
2018-07-07T04:39:45.685Z,101754.58
2018-07-07T04:42:12.709Z,101757.39
2018-07-07T04:44:39.762Z,101753.49
2018-07-07T04:47:06.785Z,101753.44
2018-07-07T04:49:33.783Z,101749.91
2018-07-07T04:52:00.773Z,101745.32
2018-07-07T04:54:27.797Z,101744.69
2018-07-07T04:56:54.845Z,101750.96
2018-07-07T04:59:21.837Z,101758.61
2018-07-07T05:01:48.800Z,101749.22
2018-07-07T05:04:15.952Z,101750.48
2018-07-07T05:06:42.989Z,101756.19
2018-07-07T05:09:09.989Z,101759.80
2018-07-07T05:11:36.985Z,101756.09
2018-07-07T05:14:04.072Z,101756.94
2018-07-07T05:16:31.225Z,101754.45
2018-07-07T05:18:58.290Z,101748.17
2018-07-07T05:21:25.419Z,101747.28
2018-07-07T05:23:52.473Z,101747.91
2018-07-07T05:26:19.466Z,101748.48
2018-07-07T05:28:46.529Z,101745.05
2018-07-07T05:31:13.533Z,101749.31
2018-07-07T05:33:40.577Z,101748.68
2018-07-07T05:36:07.657Z,101748.73
2018-07-07T05:38:34.875Z,101746.88
2018-07-07T05:41:01.857Z,101752.98
2018-07-07T05:43:28.869Z,101750.95
2018-07-07T05:45:55.851Z,101746.92
2018-07-07T05:48:22.973Z,101749.05
2018-07-07T05:50:49.957Z,101742.64
2018-07-07T05:53:17.013Z,101747.12
2018-07-07T05:55:44.026Z,101754.22
2018-07-07T05:58:11.069Z,101747.25
2018-07-07T06:00:38.069Z,101749.97
2018-07-07T06:03:05.134Z,101747.54
2018-07-07T06:05:32.141Z,101755.40
2018-07-07T06:07:59.137Z,101753.84
2018-07-07T06:10:26.222Z,101749.80
2018-07-07T06:12:53.233Z,101761.10
2018-07-07T06:15:20.341Z,101755.65
2018-07-07T06:17:47.637Z,101750.95
2018-07-07T06:20:14.666Z,101755.69
2018-07-07T06:22:41.715Z,101762.14
2018-07-07T06:25:08.529Z,101762.02
2018-07-07T06:27:35.505Z,101764.91
2018-07-07T06:30:02.578Z,101762.17
2018-07-07T06:32:29.556Z,101761.93
2018-07-07T06:34:56.565Z,101762.39
2018-07-07T06:37:23.656Z,101769.57
2018-07-07T06:39:50.617Z,101771.61
2018-07-07T06:42:17.702Z,101770.87
2018-07-07T06:44:44.785Z,101768.45
2018-07-07T06:47:11.795Z,101776.66
2018-07-07T06:49:38.791Z,101764.15
2018-07-07T06:52:05.848Z,101775.13
2018-07-07T06:54:32.852Z,101766.53
2018-07-07T06:56:59.851Z,101771.19
2018-07-07T06:59:27.069Z,101777.13
2018-07-07T07:01:54.107Z,101775.03
2018-07-07T07:04:21.165Z,101774.28
2018-07-07T07:06:48.736Z,101769.88
2018-07-07T07:09:15.753Z,101785.51
2018-07-07T07:11:42.765Z,101778.48
2018-07-07T07:14:09.866Z,101781.53
2018-07-07T07:16:36.848Z,101778.56
2018-07-07T07:19:03.884Z,101779.21
2018-07-07T07:21:31.093Z,101786.70
2018-07-07T07:23:58.601Z,101787.92
2018-07-07T07:26:25.713Z,101799.20
2018-07-07T07:28:52.782Z,101797.59
2018-07-07T07:31:19.797Z,101797.99
2018-07-07T07:33:46.945Z,101799.77
2018-07-07T07:36:14.027Z,101810.42
2018-07-07T07:38:41.073Z,101809.73
2018-07-07T07:41:08.085Z,101808.10
2018-07-07T07:43:35.369Z,101809.09
2018-07-07T07:46:02.409Z,101814.75
2018-07-07T07:48:29.406Z,101817.13
2018-07-07T07:50:56.581Z,101805.38
2018-07-07T07:53:23.605Z,101807.61
2018-07-07T07:55:50.851Z,101811.77
2018-07-07T07:58:17.837Z,101802.17
2018-07-07T08:00:44.865Z,101801.87
2018-07-07T08:03:12.206Z,101805.73
2018-07-07T08:05:39.689Z,101807.12
2018-07-07T08:08:06.701Z,101806.45
2018-07-07T08:10:33.721Z,101804.47
2018-07-07T08:13:00.725Z,101814.13
2018-07-07T08:15:27.751Z,101806.39
2018-07-07T08:17:55.481Z,101804.47
2018-07-07T08:20:22.549Z,101811.91
2018-07-07T08:22:49.566Z,101803.19
2018-07-07T08:25:16.585Z,101808.36
2018-07-07T08:27:43.557Z,101815.38
2018-07-07T08:30:10.662Z,101815.94
2018-07-07T08:32:38.014Z,101809.81
2018-07-07T08:35:06.922Z,101815.43
2018-07-07T08:37:33.908Z,101808.94
2018-07-07T08:40:01.096Z,101812.58
2018-07-07T08:42:28.093Z,101806.08
2018-07-07T08:44:55.096Z,101812.06
2018-07-07T08:47:23.012Z,101822.23
2018-07-07T08:49:50.049Z,101811.78
2018-07-07T08:52:17.071Z,101816.29
2018-07-07T08:54:44.101Z,101816.27
2018-07-07T08:57:11.107Z,101814.62
2018-07-07T08:59:39.208Z,101817.42
2018-07-07T09:02:06.418Z,101817.92
2018-07-07T09:04:33.565Z,101810.23
2018-07-07T09:07:00.771Z,101802.61
2018-07-07T09:09:27.880Z,101818.41
2018-07-07T09:11:55.022Z,101801.16
2018-07-07T09:14:22.005Z,101798.64
2018-07-07T09:16:49.037Z,101795.48
2018-07-07T09:19:16.046Z,101805.16
2018-07-07T09:21:44.237Z,101812.16
2018-07-07T09:24:11.269Z,101803.53
2018-07-07T09:26:38.393Z,101799.05
2018-07-07T09:29:05.431Z,101802.35
2018-07-07T09:31:32.462Z,101782.86
2018-07-07T09:33:59.509Z,101793.86
2018-07-07T09:36:26.803Z,101792.84
2018-07-07T09:38:55.164Z,101798.51
2018-07-07T09:41:22.162Z,101790.89
2018-07-07T09:43:49.149Z,101792.71
2018-07-07T09:46:16.177Z,101785.06
2018-07-07T09:48:43.485Z,101796.68
2018-07-07T09:51:10.494Z,101801.18
2018-07-07T09:53:37.505Z,101810.69
2018-07-07T09:56:04.505Z,101798.55
2018-07-07T09:58:31.514Z,101797.53
2018-07-07T10:00:58.501Z,101803.69
2018-07-07T10:03:25.626Z,101809.50
2018-07-07T10:05:52.641Z,101813.34
2018-07-07T10:08:19.717Z,101810.02
2018-07-07T10:10:46.737Z,101813.84
2018-07-07T10:13:13.717Z,101812.66
2018-07-07T10:15:40.709Z,101822.67
2018-07-07T10:18:07.843Z,101818.52
2018-07-07T10:20:35.276Z,101815.52
2018-07-07T10:23:02.282Z,101824.16
2018-07-07T10:25:29.529Z,101818.15
2018-07-07T10:27:56.693Z,101817.15
2018-07-07T10:30:23.796Z,101811.28
2018-07-07T10:32:50.961Z,101812.38
2018-07-07T10:35:18.037Z,101830.89
2018-07-07T10:37:45.142Z,101814.70
2018-07-07T10:40:12.233Z,101820.89
2018-07-07T10:42:39.262Z,101828.06
2018-07-07T10:45:06.381Z,101831.66
2018-07-07T10:47:33.517Z,101823.80
2018-07-07T10:50:00.513Z,101828.12
2018-07-07T10:52:27.549Z,101815.72
2018-07-07T10:54:54.537Z,101832.55
2018-07-07T10:57:21.525Z,101816.40
2018-07-07T10:59:48.573Z,101818.85
2018-07-07T11:02:16.290Z,101820.84
2018-07-07T11:04:43.686Z,101820.34
2018-07-07T11:07:10.645Z,101821.16
2018-07-07T11:09:37.685Z,101823.53
2018-07-07T11:12:04.762Z,101814.39
2018-07-07T11:14:31.696Z,101821.41
2018-07-07T11:16:58.732Z,101813.91
2018-07-07T11:19:25.766Z,101819.84
2018-07-07T11:21:52.783Z,101813.34
2018-07-07T11:24:19.888Z,101816.32
2018-07-07T11:26:46.917Z,101830.61
2018-07-07T11:29:13.997Z,101831.76
2018-07-07T11:31:40.977Z,101830.45
2018-07-07T11:34:08.025Z,101829.98
2018-07-07T11:36:35.832Z,101840.30
2018-07-07T11:39:05.815Z,101841.25
2018-07-07T11:41:32.973Z,101832.72
2018-07-07T11:43:59.961Z,101833.03
2018-07-07T11:46:26.989Z,101831.39
2018-07-07T11:48:53.988Z,101837.06
2018-07-07T11:51:20.973Z,101833.22
2018-07-07T11:53:48.026Z,101829.69
2018-07-07T11:56:15.161Z,101825.98
2018-07-07T11:58:42.150Z,101824.50
2018-07-07T12:01:09.141Z,101833.72
2018-07-07T12:03:36.145Z,101823.31
2018-07-07T12:06:03.113Z,101822.06
2018-07-07T12:08:30.230Z,101817.26
2018-07-07T12:10:57.186Z,101823.92
2018-07-07T12:13:24.281Z,101838.98
2018-07-07T12:15:51.297Z,101829.61
2018-07-07T12:18:18.374Z,101824.34
2018-07-07T12:20:45.541Z,101847.73
2018-07-07T12:23:13.814Z,101838.59
2018-07-07T12:25:40.968Z,101847.13
2018-07-07T12:28:08.037Z,101839.66
2018-07-07T12:30:35.053Z,101841.14
2018-07-07T12:33:02.173Z,101837.61
2018-07-07T12:35:29.221Z,101832.53
2018-07-07T12:37:56.278Z,101833.56
2018-07-07T12:40:23.264Z,101827.09
2018-07-07T12:42:50.257Z,101813.41
2018-07-07T12:45:17.439Z,101832.38
2018-07-07T12:47:44.437Z,101836.42
2018-07-07T12:50:11.441Z,101827.20
2018-07-07T12:52:38.425Z,101825.25
2018-07-07T12:55:06.185Z,101836.13
2018-07-07T12:57:33.413Z,101835.16
2018-07-07T13:00:00.497Z,101830.70
2018-07-07T13:02:27.490Z,101832.16
2018-07-07T13:04:54.569Z,101834.09
2018-07-07T13:07:21.885Z,101830.14
2018-07-07T13:09:49.213Z,101833.11
2018-07-07T13:12:16.206Z,101832.38
2018-07-07T13:14:43.557Z,101850.81
2018-07-07T13:17:10.665Z,101835.09
2018-07-07T13:19:37.745Z,101840.34
2018-07-07T13:22:04.740Z,101833.72
2018-07-07T13:24:31.909Z,101829.56
2018-07-07T13:26:59.080Z,101833.91
2018-07-07T13:29:26.253Z,101841.38
2018-07-07T13:31:53.501Z,101831.00
2018-07-07T13:34:20.577Z,101843.42
2018-07-07T13:36:47.637Z,101827.26
2018-07-07T13:39:14.711Z,101840.10
2018-07-07T13:41:41.834Z,101829.97
2018-07-07T13:44:08.843Z,101824.94
2018-07-07T13:46:36.057Z,101825.19
2018-07-07T13:49:03.089Z,101829.03
2018-07-07T13:51:30.088Z,101813.27
2018-07-07T13:53:57.086Z,101826.56
2018-07-07T13:56:24.105Z,101820.98
2018-07-07T13:58:51.274Z,101824.94
2018-07-07T14:01:18.263Z,101824.64
2018-07-07T14:03:45.424Z,101829.03
2018-07-07T14:06:12.552Z,101821.59
2018-07-07T14:08:39.549Z,101827.55
2018-07-07T14:11:06.553Z,101835.05
2018-07-07T14:13:33.653Z,101837.03
2018-07-07T14:16:00.726Z,101856.08
2018-07-07T14:18:27.702Z,101842.30
2018-07-07T14:20:54.761Z,101838.92
2018-07-07T14:23:21.726Z,101833.17
2018-07-07T14:25:48.761Z,101837.80
2018-07-07T14:28:15.749Z,101839.63
2018-07-07T14:30:42.738Z,101827.95
2018-07-07T14:33:09.753Z,101831.58
2018-07-07T14:35:36.734Z,101853.89
2018-07-07T14:38:03.773Z,101837.74
2018-07-07T14:40:30.897Z,101832.91
2018-07-07T14:42:57.893Z,101833.28
2018-07-07T14:45:27.161Z,101820.70
2018-07-07T14:47:55.321Z,101845.55
2018-07-07T14:50:22.677Z,101849.02
2018-07-07T14:52:49.713Z,101844.53
2018-07-07T14:55:17.934Z,101854.33
2018-07-07T14:57:45.304Z,101848.70
2018-07-07T15:00:16.552Z,101849.36
2018-07-07T15:02:45.769Z,101840.03
2018-07-07T15:05:12.785Z,101831.75
2018-07-07T15:07:39.776Z,101837.41
2018-07-07T15:10:06.805Z,101851.73
2018-07-07T15:12:33.841Z,101866.88
2018-07-07T15:15:00.853Z,101852.58
2018-07-07T15:17:27.893Z,101849.39
2018-07-07T15:19:54.867Z,101843.59
2018-07-07T15:22:21.861Z,101850.72
2018-07-07T15:24:48.845Z,101844.38
2018-07-07T15:27:15.881Z,101836.74
2018-07-07T15:29:42.905Z,101843.07
2018-07-07T15:32:09.902Z,101844.59
2018-07-07T15:34:37.229Z,101844.58
2018-07-07T15:37:04.418Z,101843.09
2018-07-07T15:39:31.397Z,101846.25
2018-07-07T15:41:58.553Z,101846.25
2018-07-07T15:44:25.613Z,101854.91
2018-07-07T15:46:53.414Z,101843.42
2018-07-07T15:49:20.421Z,101850.92
2018-07-07T15:51:47.573Z,101835.12
2018-07-07T15:54:14.554Z,101837.44
2018-07-07T15:56:41.581Z,101850.60
2018-07-07T15:59:08.575Z,101841.27
2018-07-07T16:01:35.685Z,101839.77
2018-07-07T16:04:02.728Z,101843.94
2018-07-07T16:06:29.829Z,101836.75
2018-07-07T16:08:56.913Z,101851.06
2018-07-07T16:11:23.941Z,101833.61
2018-07-07T16:13:50.989Z,101837.13
2018-07-07T16:16:17.969Z,101835.80
2018-07-07T16:18:44.981Z,101831.80
2018-07-07T16:21:11.997Z,101834.13
2018-07-07T16:23:38.989Z,101835.46
2018-07-07T16:26:06.005Z,101840.95
2018-07-07T16:28:33.127Z,101826.47
2018-07-07T16:31:00.109Z,101824.80
2018-07-07T16:33:27.137Z,101828.47
2018-07-07T16:35:54.205Z,101826.97
2018-07-07T16:38:21.213Z,101829.63
2018-07-07T16:40:48.240Z,101830.95
2018-07-07T16:43:15.277Z,101828.14
2018-07-07T16:45:42.297Z,101842.28
2018-07-07T16:48:09.313Z,101830.79
2018-07-07T16:50:36.440Z,101829.30
2018-07-07T16:53:03.486Z,101829.81
2018-07-07T16:55:30.481Z,101828.47
2018-07-07T16:57:57.689Z,101828.98
2018-07-07T17:00:24.849Z,101822.97
2018-07-07T17:02:52.266Z,101830.09
2018-07-07T17:05:19.330Z,101830.08
2018-07-07T17:07:47.322Z,101828.42
2018-07-07T17:10:15.500Z,101828.91
2018-07-07T17:12:42.505Z,101820.47
2018-07-07T17:15:09.542Z,101828.62
2018-07-07T17:17:37.377Z,101822.81
2018-07-07T17:20:04.404Z,101824.46
2018-07-07T17:22:31.460Z,101819.16
2018-07-07T17:24:58.530Z,101825.14
2018-07-07T17:27:25.889Z,101815.33
2018-07-07T17:29:52.900Z,101821.77
2018-07-07T17:32:19.890Z,101818.28
2018-07-07T17:34:46.912Z,101818.28
2018-07-07T17:37:13.953Z,101818.42
2018-07-07T17:39:40.993Z,101808.62
2018-07-07T17:42:08.142Z,101817.44
2018-07-07T17:44:35.168Z,101818.12
2018-07-07T17:47:02.246Z,101821.77
2018-07-07T17:49:29.292Z,101823.42
2018-07-07T17:51:56.946Z,101820.29
2018-07-07T17:54:23.941Z,101827.13
2018-07-07T17:56:51.565Z,101819.67
2018-07-07T17:59:18.598Z,101819.48
2018-07-07T18:01:45.700Z,101827.98
2018-07-07T18:04:13.352Z,101832.30
2018-07-07T18:06:40.477Z,101823.81
2018-07-07T18:09:07.842Z,101819.16
2018-07-07T18:11:35.024Z,101825.47
2018-07-07T18:14:02.049Z,101812.36
2018-07-07T18:16:29.098Z,101824.14
2018-07-07T18:18:56.120Z,101831.13
2018-07-07T18:21:23.217Z,101821.97
2018-07-07T18:23:50.273Z,101825.13
2018-07-07T18:26:17.395Z,101827.78
2018-07-07T18:28:44.404Z,101826.81
2018-07-07T18:31:11.381Z,101815.84
2018-07-07T18:33:38.586Z,101819.17
2018-07-07T18:36:05.677Z,101825.81
2018-07-07T18:38:32.673Z,101826.92
2018-07-07T18:41:00.039Z,101823.41
2018-07-07T18:43:27.246Z,101821.91
2018-07-07T18:45:54.235Z,101822.86
2018-07-07T18:48:21.761Z,101819.52
2018-07-07T18:50:48.789Z,101816.50
2018-07-07T18:53:16.330Z,101816.59
2018-07-07T18:55:44.076Z,101826.52
2018-07-07T18:58:11.166Z,101825.28
2018-07-07T19:00:38.273Z,101829.52
2018-07-07T19:03:05.345Z,101829.92
2018-07-07T19:05:32.433Z,101827.02
2018-07-07T19:07:59.445Z,101828.83
2018-07-07T19:10:26.513Z,101835.76
2018-07-07T19:12:53.576Z,101835.88
2018-07-07T19:15:21.459Z,101830.37
2018-07-07T19:17:49.245Z,101831.92
2018-07-07T19:20:22.026Z,101830.20
2018-07-07T19:24:56.495Z,101838.23
2018-07-07T19:27:23.481Z,101827.98
2018-07-07T19:29:50.568Z,101839.23
2018-07-07T19:32:23.229Z,101841.83
2018-07-07T19:34:56.104Z,101841.42
2018-07-07T19:37:23.190Z,101838.03
2018-07-07T19:39:50.258Z,101840.09
2018-07-07T19:42:18.136Z,101836.74
2018-07-07T19:44:45.113Z,101847.08
2018-07-07T19:47:12.281Z,101843.04
2018-07-07T19:49:39.938Z,101839.16
2018-07-07T19:52:07.153Z,101842.73
2018-07-07T19:54:34.498Z,101836.20
2018-07-07T19:57:32.681Z,101838.46
2018-07-07T19:59:59.801Z,101840.75
2018-07-07T20:02:26.862Z,101840.97
2018-07-07T20:04:54.760Z,101845.22
2018-07-07T20:07:21.754Z,101840.53
2018-07-07T20:09:49.033Z,101844.26
2018-07-07T20:12:16.069Z,101847.83
2018-07-07T20:14:43.137Z,101846.78
2018-07-07T20:17:11.404Z,101836.77
2018-07-07T20:20:58.047Z,101850.84
2018-07-07T20:23:26.344Z,101843.66
2018-07-07T20:25:59.349Z,101849.47
2018-07-07T20:28:32.192Z,101846.46
2018-07-07T20:30:59.296Z,101843.53
2018-07-07T20:33:27.009Z,101839.16
2018-07-07T20:35:54.193Z,101839.16
2018-07-07T20:38:21.241Z,101844.78
2018-07-07T20:40:48.246Z,101845.50
2018-07-07T20:43:15.237Z,101842.14
2018-07-07T20:45:42.233Z,101838.32
2018-07-07T20:48:09.253Z,101832.14
2018-07-07T20:50:36.251Z,101835.91
2018-07-07T20:53:03.341Z,101833.55
2018-07-07T20:55:30.437Z,101837.31
2018-07-07T20:57:57.517Z,101841.55
2018-07-07T21:00:24.577Z,101845.20
2018-07-07T21:02:51.601Z,101849.45
2018-07-07T21:05:18.604Z,101847.35
2018-07-07T21:07:46.641Z,101850.91
2018-07-07T21:10:13.833Z,101851.22
2018-07-07T21:12:40.973Z,101849.73
2018-07-07T21:15:08.114Z,101850.43
2018-07-07T21:17:35.289Z,101850.50
2018-07-07T21:20:02.365Z,101848.36
2018-07-07T21:22:29.741Z,101845.20
2018-07-07T21:24:56.736Z,101835.14
2018-07-07T21:27:23.789Z,101839.87
2018-07-07T21:29:50.809Z,101836.17
2018-07-07T21:32:17.853Z,101840.14
2018-07-07T21:34:44.842Z,101839.45
2018-07-07T21:37:11.853Z,101838.56
2018-07-07T21:39:38.832Z,101837.99
2018-07-07T21:42:05.893Z,101843.22
2018-07-07T21:44:32.870Z,101841.30
2018-07-07T21:46:59.916Z,101843.26
2018-07-07T21:49:26.900Z,101847.64
2018-07-07T21:51:53.906Z,101849.87
2018-07-07T21:54:20.905Z,101851.34
2018-07-07T21:56:53.322Z,101857.16
2018-07-07T21:59:20.309Z,101860.34
2018-07-07T22:01:57.089Z,101858.27
2018-07-07T22:04:30.633Z,101854.94
2018-07-07T22:07:03.901Z,101854.36
2018-07-07T22:09:32.024Z,101854.52
2018-07-07T22:11:59.271Z,101856.43
2018-07-07T22:14:26.261Z,101853.25
2018-07-07T22:16:53.459Z,101852.45
2018-07-07T22:19:20.533Z,101851.28
2018-07-07T22:21:58.401Z,101848.28
2018-07-07T22:24:25.419Z,101847.95
2018-07-07T22:27:04.650Z,101849.80
2018-07-07T22:29:31.789Z,101843.46
2018-07-07T22:32:00.965Z,101849.63
2018-07-07T22:34:33.119Z,101843.18
2018-07-07T22:37:00.306Z,101836.51
2018-07-07T22:39:27.360Z,101834.76
2018-07-07T22:41:57.757Z,101837.66
2018-07-07T22:44:24.805Z,101835.22
2018-07-07T22:46:52.636Z,101837.53
2018-07-07T22:49:19.665Z,101845.23
2018-07-07T22:51:46.658Z,101839.95
2018-07-07T22:54:13.933Z,101835.66
2018-07-07T22:56:41.453Z,101834.75
2018-07-07T22:59:08.709Z,101834.23
2018-07-07T23:01:35.961Z,101829.47
2018-07-07T23:04:03.077Z,101838.09
2018-07-07T23:06:30.261Z,101826.58
2018-07-07T23:08:57.517Z,101828.48
2018-07-07T23:11:24.545Z,101829.48
2018-07-07T23:13:52.014Z,101826.84
2018-07-07T23:16:19.009Z,101826.87
2018-07-07T23:18:46.035Z,101826.73
2018-07-07T23:21:13.029Z,101827.98
2018-07-07T23:23:40.190Z,101827.76
2018-07-07T23:26:07.193Z,101824.83
2018-07-07T23:28:34.254Z,101827.94
2018-07-07T23:31:01.233Z,101829.03
2018-07-07T23:33:28.250Z,101839.59
2018-07-07T23:35:55.345Z,101832.01
2018-07-07T23:38:22.353Z,101827.83
2018-07-07T23:40:49.337Z,101826.18
2018-07-07T23:43:16.385Z,101822.08
2018-07-07T23:45:43.425Z,101824.38
2018-07-07T23:48:10.397Z,101817.91
2018-07-07T23:50:37.409Z,101817.42
2018-07-07T23:53:05.233Z,101816.33
2018-07-07T23:55:32.267Z,101816.84
2018-07-07T23:57:59.277Z,101824.90
